createdAt,value
2022-08-07T00:02:35.238Z,93222.00
2022-08-07T00:04:09.287Z,93233.16
2022-08-07T00:06:41.062Z,93227.94
2022-08-07T00:09:29.208Z,93227.16
2022-08-07T00:12:05.856Z,93223.22
2022-08-07T00:14:33.386Z,93219.88
2022-08-07T00:17:02.417Z,93220.62
2022-08-07T00:20:01.604Z,93218.09
2022-08-07T00:22:24.769Z,93219.19
2022-08-07T00:25:16.650Z,93228.16
2022-08-07T00:27:52.609Z,93238.50
2022-08-07T00:30:26.573Z,93233.31
2022-08-07T00:32:59.731Z,93221.72
2022-08-07T00:35:29.627Z,93227.94
2022-08-07T00:37:59.663Z,93224.87
2022-08-07T00:40:39.687Z,93232.84
2022-08-07T00:43:10.545Z,93232.75
2022-08-07T00:45:41.435Z,93223.81
2022-08-07T00:48:14.296Z,93215.34
2022-08-07T00:50:46.572Z,93215.94
2022-08-07T00:53:20.435Z,93210.31
2022-08-07T00:56:00.635Z,93212.81
2022-08-07T00:58:32.669Z,93216.13
2022-08-07T01:01:00.175Z,93219.91
2022-08-07T01:03:56.343Z,93221.50
2022-08-07T01:06:15.712Z,93221.59
2022-08-07T01:08:53.520Z,93219.84
2022-08-07T01:12:04.762Z,93219.56
2022-08-07T01:14:10.623Z,93211.91
2022-08-07T01:16:38.342Z,93221.94
2022-08-07T01:19:14.837Z,93227.16
2022-08-07T01:21:48.632Z,93221.62
2022-08-07T01:24:18.684Z,93234.31
2022-08-07T01:26:53.825Z,93232.84
2022-08-07T01:29:27.979Z,93219.56
2022-08-07T01:32:05.211Z,93221.25
2022-08-07T01:34:33.647Z,93228.62
2022-08-07T01:37:02.204Z,93224.22
2022-08-07T01:39:40.469Z,93224.59
2022-08-07T01:42:37.725Z,93237.28
2022-08-07T01:44:57.734Z,93230.03
2022-08-07T01:48:29.499Z,93234.22
2022-08-07T01:50:14.105Z,93236.38
2022-08-07T01:52:49.651Z,93228.03
2022-08-07T01:55:26.653Z,93235.50
2022-08-07T01:58:05.793Z,93237.69
2022-08-07T02:00:35.820Z,93234.31
2022-08-07T02:03:21.314Z,93241.41
2022-08-07T02:05:59.655Z,93248.41
2022-08-07T02:08:30.002Z,93246.41
2022-08-07T02:10:59.718Z,93236.31
2022-08-07T02:13:56.456Z,93249.16
2022-08-07T02:16:19.932Z,93269.75
2022-08-07T02:18:56.623Z,93311.00
2022-08-07T02:21:26.696Z,93297.69
2022-08-07T02:24:17.709Z,93267.66
2022-08-07T02:26:46.312Z,93272.81
2022-08-07T02:29:14.936Z,93276.84
2022-08-07T02:31:50.166Z,93275.84
2022-08-07T02:34:20.259Z,93270.47
2022-08-07T02:36:49.636Z,93267.66
2022-08-07T02:39:43.132Z,93267.25
2022-08-07T02:42:10.174Z,93264.38
2022-08-07T02:44:48.047Z,93261.44
2022-08-07T02:47:23.526Z,93257.81
2022-08-07T02:50:08.345Z,93246.81
2022-08-07T02:52:48.862Z,93241.41
2022-08-07T02:56:02.361Z,93236.09
2022-08-07T02:58:22.217Z,93245.25
2022-08-07T03:00:56.618Z,93244.75
2022-08-07T03:03:29.455Z,93254.75
2022-08-07T03:06:16.222Z,93244.75
2022-08-07T03:08:44.981Z,93247.50
2022-08-07T03:11:12.630Z,93242.91
2022-08-07T03:13:49.413Z,93233.56
2022-08-07T03:16:18.531Z,93234.63
2022-08-07T03:18:51.282Z,93231.28
2022-08-07T03:21:19.395Z,93228.13
2022-08-07T03:24:20.754Z,93235.69
2022-08-07T03:26:36.363Z,93222.91
2022-08-07T03:29:19.162Z,93229.91
2022-08-07T03:31:50.003Z,93233.63
2022-08-07T03:34:22.128Z,93235.50
2022-08-07T03:36:53.293Z,93236.09
2022-08-07T03:39:46.571Z,93246.13
2022-08-07T03:42:10.678Z,93236.41
2022-08-07T03:44:41.836Z,93235.00
2022-08-07T03:47:11.081Z,93231.97
2022-08-07T03:49:40.458Z,93232.16
2022-08-07T03:52:26.088Z,93225.97
2022-08-07T03:55:06.756Z,93225.84
2022-08-07T03:58:32.707Z,93225.84
2022-08-07T04:00:30.286Z,93229.56
2022-08-07T04:02:59.729Z,93230.44
2022-08-07T04:05:40.754Z,93237.88
2022-08-07T04:08:12.268Z,93245.53
2022-08-07T04:10:42.244Z,93250.19
2022-08-07T04:13:15.368Z,93242.88
2022-08-07T04:15:43.693Z,93251.25
2022-08-07T04:18:58.499Z,93250.97
2022-08-07T04:21:03.075Z,93245.53
2022-08-07T04:23:43.754Z,93238.34
2022-08-07T04:26:25.161Z,93243.72
2022-08-07T04:28:58.629Z,93243.34
2022-08-07T04:31:39.100Z,93227.56
2022-08-07T04:34:16.438Z,93242.59
2022-08-07T04:36:45.233Z,93239.13
2022-08-07T04:39:13.207Z,93232.50
2022-08-07T04:41:50.277Z,93236.84
2022-08-07T04:44:20.744Z,93235.19
2022-08-07T04:47:03.946Z,93235.81
2022-08-07T04:50:10.874Z,93245.38
2022-08-07T04:53:09.334Z,93247.22
2022-08-07T04:58:13.159Z,93246.84
2022-08-07T04:59:16.900Z,93255.63
2022-08-07T05:01:54.702Z,93248.56
2022-08-07T05:04:33.566Z,93245.88
2022-08-07T05:07:19.581Z,93242.63
2022-08-07T05:10:01.311Z,93249.97
2022-08-07T05:13:01.866Z,93257.75
2022-08-07T05:15:53.500Z,93264.84
2022-08-07T05:18:35.551Z,93264.75
2022-08-07T05:21:12.682Z,93267.12
2022-08-07T05:24:03.249Z,93275.50
2022-08-07T05:26:33.897Z,93267.81
2022-08-07T05:29:05.916Z,93280.31
2022-08-07T05:31:39.790Z,93288.31
2022-08-07T05:34:11.891Z,93282.09
2022-08-07T05:36:42.318Z,93292.75
2022-08-07T05:40:07.007Z,93288.19
2022-08-07T05:42:03.001Z,93285.06
2022-08-07T05:44:35.479Z,93284.59
2022-08-07T05:47:18.315Z,93284.59
2022-08-07T05:49:50.841Z,93288.97
2022-08-07T05:52:20.757Z,93294.31
2022-08-07T05:55:07.264Z,93300.87
2022-08-07T05:57:42.259Z,93293.09
2022-08-07T06:00:16.636Z,93296.34
2022-08-07T06:02:51.031Z,93298.66
2022-08-07T06:05:28.152Z,93305.88
2022-08-07T06:08:29.818Z,93307.72
2022-08-07T06:10:51.226Z,93302.50
2022-08-07T06:13:20.926Z,93297.81
2022-08-07T06:16:10.177Z,93291.28
2022-08-07T06:18:51.735Z,93302.66
2022-08-07T06:22:15.514Z,93298.50
2022-08-07T06:24:45.495Z,93303.16
2022-08-07T06:26:59.205Z,93298.41
2022-08-07T06:29:32.123Z,93294.13
2022-08-07T06:32:01.449Z,93301.41
2022-08-07T06:34:29.809Z,93310.56
2022-08-07T06:36:59.256Z,93311.22
2022-08-07T06:40:16.246Z,93297.75
2022-08-07T06:42:37.199Z,93295.06
2022-08-07T06:45:11.276Z,93294.00
2022-08-07T06:47:57.459Z,93297.59
2022-08-07T06:50:27.429Z,93295.41
2022-08-07T06:52:59.609Z,93288.75
2022-08-07T06:55:53.442Z,93294.56
2022-08-07T06:58:21.558Z,93300.91
2022-08-07T07:00:53.288Z,93304.06
2022-08-07T07:03:39.573Z,93305.75
2022-08-07T07:06:10.975Z,93293.66
2022-08-07T07:08:46.426Z,93299.41
2022-08-07T07:12:09.096Z,93309.75
2022-08-07T07:14:03.009Z,93307.22
2022-08-07T07:16:34.357Z,93309.53
2022-08-07T07:19:55.463Z,93301.53
2022-08-07T07:22:04.972Z,93294.16
2022-08-07T07:24:43.081Z,93295.66
2022-08-07T07:27:25.564Z,93303.44
2022-08-07T07:30:09.661Z,93295.88
2022-08-07T07:32:40.587Z,93292.16
2022-08-07T07:35:13.152Z,93294.72
2022-08-07T07:37:47.296Z,93297.66
2022-08-07T07:40:18.949Z,93306.88
2022-08-07T07:42:54.191Z,93307.13
2022-08-07T07:46:40.465Z,93314.16
2022-08-07T07:48:34.724Z,93302.06
2022-08-07T07:51:08.124Z,93303.72
2022-08-07T07:53:51.357Z,93310.13
2022-08-07T07:56:30.071Z,93302.16
2022-08-07T07:59:06.197Z,93301.50
2022-08-07T08:02:03.652Z,93316.84
2022-08-07T08:04:25.827Z,93317.88
2022-08-07T08:06:54.342Z,93328.94
2022-08-07T08:09:24.495Z,93323.59
2022-08-07T08:12:02.986Z,93325.38
2022-08-07T08:14:36.417Z,93327.84
2022-08-07T08:17:56.521Z,93322.78
2022-08-07T08:20:17.523Z,93323.00
2022-08-07T08:23:10.327Z,93320.97
2022-08-07T08:25:58.230Z,93314.59
2022-08-07T08:28:38.460Z,93321.91
2022-08-07T08:31:15.901Z,93334.31
2022-08-07T08:33:49.441Z,93331.16
2022-08-07T08:36:29.669Z,93334.31
2022-08-07T08:39:01.850Z,93345.69
2022-08-07T08:41:57.064Z,93340.88
2022-08-07T08:44:29.183Z,93341.84
2022-08-07T08:47:09.872Z,93339.97
2022-08-07T08:50:05.103Z,93341.28
2022-08-07T08:52:53.758Z,93339.84
2022-08-07T08:55:54.236Z,93344.25
2022-08-07T08:58:36.108Z,93339.22
2022-08-07T09:01:26.314Z,93335.06
2022-08-07T09:04:03.877Z,93331.87
2022-08-07T09:06:50.378Z,93329.19
2022-08-07T09:09:42.278Z,93330.25
2022-08-07T09:12:30.860Z,93323.66
2022-08-07T09:16:24.534Z,93319.41
2022-08-07T09:18:16.831Z,93312.53
2022-08-07T09:20:58.335Z,93321.19
2022-08-07T09:24:31.663Z,93328.16
2022-08-07T09:26:33.751Z,93323.75
2022-08-07T09:30:05.704Z,93323.53
2022-08-07T09:32:48.403Z,93317.41
2022-08-07T09:36:03.238Z,93308.47
2022-08-07T09:38:31.911Z,93305.31
2022-08-07T09:41:19.690Z,93314.25
2022-08-07T09:44:05.829Z,93317.06
2022-08-07T09:47:49.767Z,93303.66
2022-08-07T09:50:00.760Z,93304.28
2022-08-07T09:52:33.348Z,93301.37
2022-08-07T09:55:17.056Z,93311.41
2022-08-07T09:58:10.199Z,93300.63
2022-08-07T10:00:59.978Z,93290.47
2022-08-07T10:04:05.293Z,93285.84
2022-08-07T10:06:38.272Z,93290.00
2022-08-07T10:09:09.446Z,93297.28
2022-08-07T10:12:00.627Z,93285.25
2022-08-07T10:14:31.328Z,93281.47
2022-08-07T10:17:17.408Z,93298.09
2022-08-07T10:20:13.161Z,93289.53
2022-08-07T10:22:50.905Z,93288.28
2022-08-07T10:25:20.809Z,93277.84
2022-08-07T10:27:57.495Z,93274.12
2022-08-07T10:30:36.597Z,93268.44
2022-08-07T10:33:08.865Z,93269.16
2022-08-07T10:35:55.783Z,93265.03
2022-08-07T10:38:41.384Z,93272.41
2022-08-07T10:41:16.050Z,93272.31
2022-08-07T10:44:19.473Z,93277.34
2022-08-07T10:47:16.757Z,93272.16
2022-08-07T10:50:18.804Z,93270.75
2022-08-07T10:53:08.142Z,93269.97
2022-08-07T10:55:50.441Z,93275.12
2022-08-07T10:58:33.343Z,93268.88
2022-08-07T11:01:15.111Z,93265.31
2022-08-07T11:03:54.973Z,93259.28
2022-08-07T11:06:40.496Z,93253.78
2022-08-07T11:10:07.896Z,93259.72
2022-08-07T11:12:12.181Z,93257.38
2022-08-07T11:14:59.857Z,93270.81
2022-08-07T11:17:45.075Z,93255.34
2022-08-07T11:20:16.686Z,93277.16
2022-08-07T11:22:51.973Z,93261.94
2022-08-07T11:25:23.193Z,93273.88
2022-08-07T11:28:01.143Z,93267.47
2022-08-07T11:30:51.017Z,93258.16
2022-08-07T11:33:53.831Z,93265.44
2022-08-07T11:36:14.027Z,93271.13
2022-08-07T11:38:54.702Z,93255.69
2022-08-07T11:42:00.308Z,93260.97
2022-08-07T11:44:36.752Z,93265.94
2022-08-07T11:47:38.679Z,93270.37
2022-08-07T11:50:30.307Z,93278.84
2022-08-07T11:53:05.262Z,93266.94
2022-08-07T11:56:15.754Z,93253.22
2022-08-07T11:59:00.368Z,93255.94
2022-08-07T12:02:00.666Z,93247.72
2022-08-07T12:04:35.697Z,93254.75
2022-08-07T12:07:20.583Z,93255.25
2022-08-07T12:10:02.125Z,93250.13
2022-08-07T12:12:37.199Z,93264.81
2022-08-07T12:15:08.240Z,93251.97
2022-08-07T12:17:59.377Z,93265.88
2022-08-07T12:20:36.427Z,93267.28
2022-08-07T12:23:37.125Z,93269.75
2022-08-07T12:26:33.636Z,93264.47
2022-08-07T12:29:03.965Z,93256.72
2022-08-07T12:32:01.660Z,93246.41
2022-08-07T12:34:32.766Z,93250.41
2022-08-07T12:37:01.110Z,93223.50
2022-08-07T12:39:43.026Z,93224.09
2022-08-07T12:42:13.606Z,93234.44
2022-08-07T12:44:46.254Z,93237.31
2022-08-07T12:47:27.084Z,93242.69
2022-08-07T12:50:39.564Z,93243.88
2022-08-07T12:54:02.808Z,93236.12
2022-08-07T12:56:30.151Z,93227.78
2022-08-07T12:59:00.110Z,93228.84
2022-08-07T13:01:45.411Z,93246.56
2022-08-07T13:04:33.983Z,93242.06
2022-08-07T13:08:12.494Z,93236.88
2022-08-07T13:10:19.533Z,93248.25
2022-08-07T13:13:11.046Z,93238.59
2022-08-07T13:16:17.803Z,93239.06
2022-08-07T13:19:04.354Z,93248.25
2022-08-07T13:21:57.448Z,93246.78
2022-08-07T13:24:37.576Z,93245.03
2022-08-07T13:27:23.889Z,93258.59
2022-08-07T13:30:19.582Z,93247.97
2022-08-07T13:33:03.226Z,93250.84
2022-08-07T13:36:01.099Z,93234.78
2022-08-07T13:38:42.060Z,93234.81
2022-08-07T13:41:31.296Z,93226.28
2022-08-07T13:44:02.378Z,93218.41
2022-08-07T13:46:38.849Z,93229.75
2022-08-07T13:50:31.679Z,93226.00
2022-08-07T13:52:27.077Z,93242.97
2022-08-07T13:55:00.644Z,93260.28
2022-08-07T13:57:37.667Z,93293.34
2022-08-07T14:00:13.362Z,93278.78
2022-08-07T14:02:57.146Z,93278.66
2022-08-07T14:05:37.462Z,93270.03
2022-08-07T14:08:07.986Z,93267.41
2022-08-07T14:10:41.985Z,93268.41
2022-08-07T14:13:17.011Z,93278.09
2022-08-07T14:15:57.149Z,93271.50
2022-08-07T14:18:30.413Z,93269.44
2022-08-07T14:21:11.834Z,93274.78
2022-08-07T14:24:04.242Z,93276.97
2022-08-07T14:26:50.236Z,93279.22
2022-08-07T14:30:06.157Z,93271.25
2022-08-07T14:32:16.622Z,93268.03
2022-08-07T14:34:47.941Z,93263.09
2022-08-07T14:37:23.848Z,93252.16
2022-08-07T14:40:15.848Z,93251.94
2022-08-07T14:43:01.153Z,93261.63
2022-08-07T14:45:51.767Z,93260.56
2022-08-07T14:48:27.285Z,93265.78
2022-08-07T14:51:02.969Z,93267.25
2022-08-07T14:54:03.649Z,93267.59
2022-08-07T14:59:13.708Z,93256.16
2022-08-07T15:02:31.973Z,93262.31
2022-08-07T15:05:01.754Z,93252.84
2022-08-07T15:07:47.462Z,93271.56
2022-08-07T15:10:20.263Z,93263.87
2022-08-07T15:12:58.455Z,93263.00
2022-08-07T15:15:38.436Z,93260.72
2022-08-07T15:18:34.796Z,93262.50
2022-08-07T15:25:13.284Z,93273.25
2022-08-07T15:27:03.911Z,93263.59
2022-08-07T15:30:09.565Z,93258.31
2022-08-07T15:32:39.939Z,93256.84
2022-08-07T15:35:18.360Z,93255.78
2022-08-07T15:38:30.353Z,93260.84
2022-08-07T15:41:22.815Z,93265.56
2022-08-07T15:43:55.926Z,93266.50
2022-08-07T15:46:31.246Z,93257.59
2022-08-07T15:49:12.618Z,93264.69
2022-08-07T15:54:45.958Z,93264.63
2022-08-07T15:57:39.649Z,93265.97
2022-08-07T16:00:08.565Z,93263.09
2022-08-07T16:02:58.546Z,93272.69
2022-08-07T16:05:31.207Z,93272.41
2022-08-07T16:08:32.013Z,93270.66
2022-08-07T16:11:26.472Z,93265.25
2022-08-07T16:14:21.776Z,93264.69
2022-08-07T16:16:49.850Z,93265.88
2022-08-07T16:19:42.519Z,93263.00
2022-08-07T16:22:31.958Z,93266.75
2022-08-07T16:25:23.103Z,93272.03
2022-08-07T16:30:09.075Z,93273.69
2022-08-07T16:31:10.028Z,93273.97
2022-08-07T16:34:03.122Z,93273.47
2022-08-07T16:37:00.175Z,93265.97
2022-08-07T16:39:49.083Z,93265.97
2022-08-07T16:42:25.570Z,93271.25
2022-08-07T16:45:14.730Z,93268.47
2022-08-07T16:47:59.195Z,93272.28
2022-08-07T16:51:21.681Z,93281.09
2022-08-07T16:54:06.261Z,93279.59
2022-08-07T16:56:56.788Z,93290.38
2022-08-07T16:59:46.675Z,93287.03
2022-08-07T17:02:28.390Z,93288.06
2022-08-07T17:06:19.095Z,93284.44
2022-08-07T17:08:19.442Z,93284.47
2022-08-07T17:10:57.498Z,93289.56
2022-08-07T17:13:40.321Z,93287.44
2022-08-07T17:16:34.057Z,93290.41
2022-08-07T17:19:04.743Z,93296.72
2022-08-07T17:21:51.100Z,93306.94
2022-08-07T17:24:29.363Z,93319.91
2022-08-07T17:26:58.265Z,93315.66
2022-08-07T17:30:16.159Z,93319.34
2022-08-07T17:32:30.407Z,93326.41
2022-08-07T17:35:55.269Z,93332.50
2022-08-07T17:38:35.950Z,93336.84
2022-08-07T17:42:03.755Z,93333.97
2022-08-07T17:44:14.757Z,93340.50
2022-08-07T17:46:58.944Z,93346.09
2022-08-07T17:49:52.299Z,93345.59
2022-08-07T17:52:30.590Z,93352.31
2022-08-07T17:55:12.516Z,93355.31
2022-08-07T17:57:59.121Z,93352.84
2022-08-07T18:00:34.712Z,93350.59
2022-08-07T18:03:21.070Z,93354.94
2022-08-07T18:06:01.556Z,93363.31
2022-08-07T18:08:33.086Z,93370.37
2022-08-07T18:12:16.431Z,93372.59
2022-08-07T18:14:25.278Z,93370.41
2022-08-07T18:17:06.392Z,93381.62
2022-08-07T18:21:07.068Z,93382.88
2022-08-07T18:22:33.980Z,93384.94
2022-08-07T18:25:24.143Z,93389.47
2022-08-07T18:28:07.365Z,93387.13
2022-08-07T18:30:50.021Z,93387.91
2022-08-07T18:33:38.171Z,93398.44
2022-08-07T18:36:06.127Z,93404.28
2022-08-07T18:38:56.987Z,93406.16
2022-08-07T18:41:44.639Z,93412.69
2022-08-07T18:45:39.588Z,93418.47
2022-08-07T18:47:44.588Z,93418.66
2022-08-07T18:50:43.892Z,93420.97
2022-08-07T18:53:14.054Z,93429.69
2022-08-07T18:56:08.045Z,93450.19
2022-08-07T18:58:59.328Z,93467.25
2022-08-07T19:02:17.200Z,93470.28
2022-08-07T19:05:10.100Z,93481.06
2022-08-07T19:07:51.530Z,93502.62
2022-08-07T19:10:31.317Z,93511.03
2022-08-07T19:13:25.633Z,93510.16
2022-08-07T19:17:04.110Z,93517.66
2022-08-07T19:19:08.766Z,93511.22
2022-08-07T19:21:55.884Z,93509.03
2022-08-07T19:24:35.500Z,93512.59
2022-08-07T19:28:57.515Z,93503.25
2022-08-07T19:30:55.949Z,93501.66
2022-08-07T19:32:46.450Z,93497.06
2022-08-07T19:35:19.559Z,93502.25
2022-08-07T19:37:56.517Z,93495.72
2022-08-07T19:40:31.074Z,93489.47
2022-08-07T19:43:02.410Z,93489.94
2022-08-07T19:46:05.104Z,93481.81
2022-08-07T19:48:24.264Z,93485.22
2022-08-07T19:50:53.821Z,93485.53
2022-08-07T19:54:32.104Z,93482.00
2022-08-07T19:57:51.707Z,93491.87
2022-08-07T19:59:02.962Z,93484.78
2022-08-07T20:01:52.209Z,93489.66
2022-08-07T20:04:31.608Z,93486.84
2022-08-07T20:07:00.718Z,93484.94
2022-08-07T20:10:33.949Z,93478.84
2022-08-07T20:12:34.923Z,93484.41
2022-08-07T20:15:18.986Z,93487.62
2022-08-07T20:17:56.220Z,93481.94
2022-08-07T20:20:34.072Z,93478.44
2022-08-07T20:23:41.598Z,93472.31
2022-08-07T20:26:11.657Z,93472.16
2022-08-07T20:28:51.635Z,93458.84
2022-08-07T20:31:26.245Z,93464.50
2022-08-07T20:33:56.755Z,93470.72
2022-08-07T20:36:30.005Z,93471.31
2022-08-07T20:39:00.779Z,93473.12
2022-08-07T20:41:48.396Z,93472.88
2022-08-07T20:44:16.360Z,93474.94
2022-08-07T20:46:46.806Z,93473.97
2022-08-07T20:49:59.987Z,93471.88
2022-08-07T20:52:29.979Z,93477.19
2022-08-07T20:55:12.883Z,93481.75
2022-08-07T20:57:47.516Z,93476.03
2022-08-07T21:00:42.486Z,93473.59
2022-08-07T21:03:12.535Z,93481.63
2022-08-07T21:05:54.827Z,93479.53
2022-08-07T21:08:36.581Z,93482.53
2022-08-07T21:11:12.044Z,93476.78
2022-08-07T21:14:20.276Z,93480.22
2022-08-07T21:16:56.011Z,93481.41
2022-08-07T21:19:32.546Z,93476.34
2022-08-07T21:22:15.138Z,93485.34
2022-08-07T21:25:12.835Z,93495.16
2022-08-07T21:28:02.223Z,93499.81
2022-08-07T21:30:35.289Z,93492.47
2022-08-07T21:33:06.027Z,93489.44
2022-08-07T21:36:05.651Z,93490.59
2022-08-07T21:38:27.746Z,93487.94
2022-08-07T21:40:55.256Z,93501.78
2022-08-07T21:43:47.258Z,93487.66
2022-08-07T21:46:25.082Z,93493.59
2022-08-07T21:49:16.354Z,93491.13
2022-08-07T21:51:51.677Z,93488.75
2022-08-07T21:54:26.280Z,93491.50
2022-08-07T21:57:06.988Z,93487.47
2022-08-07T22:00:03.945Z,93498.91
2022-08-07T22:02:50.526Z,93492.25
2022-08-07T22:05:45.688Z,93492.47
2022-08-07T22:08:10.403Z,93491.94
2022-08-07T22:10:42.535Z,93491.91
2022-08-07T22:13:13.811Z,93494.41
2022-08-07T22:16:39.095Z,93482.59
2022-08-07T22:19:00.959Z,93484.69
2022-08-07T22:22:02.275Z,93476.53
2022-08-07T22:24:32.619Z,93482.44
2022-08-07T22:27:18.072Z,93483.87
2022-08-07T22:29:52.460Z,93490.97
2022-08-07T22:32:42.302Z,93495.44
2022-08-07T22:35:11.616Z,93489.59
2022-08-07T22:38:01.947Z,93497.34
2022-08-07T22:40:35.613Z,93492.22
2022-08-07T22:43:13.712Z,93500.97
2022-08-07T22:46:40.724Z,93488.91
2022-08-07T22:48:55.920Z,93492.87
2022-08-07T22:51:44.211Z,93487.69
2022-08-07T22:54:38.198Z,93487.16
2022-08-07T22:57:16.954Z,93485.81
2022-08-07T22:59:52.402Z,93489.56
2022-08-07T23:02:38.558Z,93497.03
2022-08-07T23:06:14.519Z,93496.19
2022-08-07T23:07:54.098Z,93493.75
2022-08-07T23:10:48.754Z,93502.50
2022-08-07T23:13:48.793Z,93493.25
2022-08-07T23:16:46.757Z,93495.25
2022-08-07T23:19:48.188Z,93506.25
2022-08-07T23:22:31.900Z,93505.13
2022-08-07T23:25:18.341Z,93508.91
2022-08-07T23:28:22.559Z,93509.66
2022-08-07T23:30:45.772Z,93506.66
2022-08-07T23:34:33.773Z,93513.84
2022-08-07T23:36:43.155Z,93508.00
2022-08-07T23:39:35.965Z,93508.59
2022-08-07T23:42:08.208Z,93507.06
2022-08-07T23:44:57.973Z,93506.87
2022-08-07T23:47:52.286Z,93500.50
2022-08-07T23:50:29.736Z,93503.06
2022-08-07T23:53:08.369Z,93509.44
2022-08-07T23:55:56.730Z,93510.25
2022-08-07T23:58:34.986Z,93511.19
